sensor_id;sensor_type;location;lat;lon;timestamp;P1;durP1;ratioP1;P2;durP2;ratioP2
32427;SDS011;18882;50.952;4.366;2023-04-01T00:00:50;9.48;;;0.90;;
32427;SDS011;18882;50.952;4.366;2023-04-01T00:03:20;6.10;;;1.00;;
32427;SDS011;18882;50.952;4.366;2023-04-01T00:05:47;6.28;;;1.05;;
32427;SDS011;18882;50.952;4.366;2023-04-01T00:08:13;3.45;;;0.65;;
32427;SDS011;18882;50.952;4.366;2023-04-01T00:10:38;4.35;;;0.95;;
32427;SDS011;18882;50.952;4.366;2023-04-01T00:13:04;1.70;;;0.65;;
32427;SDS011;18882;50.952;4.366;2023-04-01T00:15:30;8.60;;;0.80;;
32427;SDS011;18882;50.952;4.366;2023-04-01T00:17:56;4.68;;;1.08;;
32427;SDS011;18882;50.952;4.366;2023-04-01T00:20:21;7.88;;;0.70;;
32427;SDS011;18882;50.952;4.366;2023-04-01T00:22:47;6.57;;;1.60;;
32427;SDS011;18882;50.952;4.366;2023-04-01T00:25:13;5.85;;;0.73;;
32427;SDS011;18882;50.952;4.366;2023-04-01T00:27:39;8.05;;;0.85;;
32427;SDS011;18882;50.952;4.366;2023-04-01T00:30:06;9.43;;;0.47;;
32427;SDS011;18882;50.952;4.366;2023-04-01T00:32:32;3.17;;;0.73;;
32427;SDS011;18882;50.952;4.366;2023-04-01T00:34:58;2.88;;;0.63;;
32427;SDS011;18882;50.952;4.366;2023-04-01T00:37:25;3.10;;;1.00;;
32427;SDS011;18882;50.952;4.366;2023-04-01T00:39:51;4.35;;;0.60;;
32427;SDS011;18882;50.952;4.366;2023-04-01T00:42:17;2.40;;;0.75;;
32427;SDS011;18882;50.952;4.366;2023-04-01T00:44:44;7.85;;;0.80;;
32427;SDS011;18882;50.952;4.366;2023-04-01T00:47:16;3.95;;;0.98;;
32427;SDS011;18882;50.952;4.366;2023-04-01T00:49:43;5.88;;;1.10;;
32427;SDS011;18882;50.952;4.366;2023-04-01T00:52:14;6.60;;;1.30;;
32427;SDS011;18882;50.952;4.366;2023-04-01T00:54:44;3.72;;;1.42;;
32427;SDS011;18882;50.952;4.366;2023-04-01T00:57:14;6.90;;;1.45;;
32427;SDS011;18882;50.952;4.366;2023-04-01T00:59:47;4.78;;;1.00;;
32427;SDS011;18882;50.952;4.366;2023-04-01T01:02:15;4.03;;;0.90;;
32427;SDS011;18882;50.952;4.366;2023-04-01T01:04:41;4.70;;;1.30;;
32427;SDS011;18882;50.952;4.366;2023-04-01T01:12:37;5.22;;;2.30;;
32427;SDS011;18882;50.952;4.366;2023-04-01T01:15:26;5.03;;;2.05;;
32427;SDS011;18882;50.952;4.366;2023-04-01T01:31:34;7.97;;;3.00;;
32427;SDS011;18882;50.952;4.366;2023-04-01T01:37:01;7.60;;;2.13;;
32427;SDS011;18882;50.952;4.366;2023-04-01T01:39:31;8.90;;;2.10;;
32427;SDS011;18882;50.952;4.366;2023-04-01T01:42:04;6.05;;;2.38;;
32427;SDS011;18882;50.952;4.366;2023-04-01T01:44:32;6.90;;;2.53;;
32427;SDS011;18882;50.952;4.366;2023-04-01T01:46:59;9.65;;;2.58;;
32427;SDS011;18882;50.952;4.366;2023-04-01T01:49:26;9.77;;;2.58;;
32427;SDS011;18882;50.952;4.366;2023-04-01T01:51:55;3.72;;;2.30;;
32427;SDS011;18882;50.952;4.366;2023-04-01T01:54:21;6.32;;;3.10;;
32427;SDS011;18882;50.952;4.366;2023-04-01T01:56:48;6.13;;;2.65;;
32427;SDS011;18882;50.952;4.366;2023-04-01T01:59:17;10.02;;;3.00;;
32427;SDS011;18882;50.952;4.366;2023-04-01T02:01:48;10.00;;;3.05;;
32427;SDS011;18882;50.952;4.366;2023-04-01T02:04:16;8.57;;;2.97;;
32427;SDS011;18882;50.952;4.366;2023-04-01T02:06:50;5.78;;;2.70;;
32427;SDS011;18882;50.952;4.366;2023-04-01T02:09:21;8.07;;;3.65;;
32427;SDS011;18882;50.952;4.366;2023-04-01T02:11:48;5.78;;;2.35;;
32427;SDS011;18882;50.952;4.366;2023-04-01T02:14:25;7.93;;;2.40;;
32427;SDS011;18882;50.952;4.366;2023-04-01T02:17:37;10.43;;;2.40;;
32427;SDS011;18882;50.952;4.366;2023-04-01T02:19:50;9.82;;;2.45;;
32427;SDS011;18882;50.952;4.366;2023-04-01T02:22:29;14.38;;;2.75;;
32427;SDS011;18882;50.952;4.366;2023-04-01T02:25:00;7.50;;;2.63;;
32427;SDS011;18882;50.952;4.366;2023-04-01T02:27:30;4.38;;;2.33;;
32427;SDS011;18882;50.952;4.366;2023-04-01T02:29:56;8.73;;;2.83;;
32427;SDS011;18882;50.952;4.366;2023-04-01T02:32:23;10.20;;;2.60;;
32427;SDS011;18882;50.952;4.366;2023-04-01T02:34:49;8.07;;;2.58;;
32427;SDS011;18882;50.952;4.366;2023-04-01T02:37:16;4.75;;;2.22;;
32427;SDS011;18882;50.952;4.366;2023-04-01T02:39:42;9.73;;;2.55;;
32427;SDS011;18882;50.952;4.366;2023-04-01T02:42:08;11.15;;;2.28;;
32427;SDS011;18882;50.952;4.366;2023-04-01T02:44:34;5.82;;;1.95;;
32427;SDS011;18882;50.952;4.366;2023-04-01T02:47:00;5.78;;;2.00;;
32427;SDS011;18882;50.952;4.366;2023-04-01T02:49:25;8.65;;;2.03;;
32427;SDS011;18882;50.952;4.366;2023-04-01T02:51:51;6.27;;;2.00;;
32427;SDS011;18882;50.952;4.366;2023-04-01T02:54:17;6.05;;;1.77;;
32427;SDS011;18882;50.952;4.366;2023-04-01T02:56:43;6.30;;;1.92;;
32427;SDS011;18882;50.952;4.366;2023-04-01T02:59:10;7.35;;;1.90;;
32427;SDS011;18882;50.952;4.366;2023-04-01T03:01:36;7.13;;;2.40;;
32427;SDS011;18882;50.952;4.366;2023-04-01T03:04:02;9.02;;;1.98;;
32427;SDS011;18882;50.952;4.366;2023-04-01T03:06:28;5.68;;;2.40;;
32427;SDS011;18882;50.952;4.366;2023-04-01T03:08:53;9.73;;;2.22;;
32427;SDS011;18882;50.952;4.366;2023-04-01T03:11:19;4.55;;;2.58;;
32427;SDS011;18882;50.952;4.366;2023-04-01T03:13:46;5.53;;;2.80;;
32427;SDS011;18882;50.952;4.366;2023-04-01T03:16:12;6.97;;;2.65;;
32427;SDS011;18882;50.952;4.366;2023-04-01T03:18:39;6.63;;;3.17;;
32427;SDS011;18882;50.952;4.366;2023-04-01T03:21:14;5.82;;;2.80;;
32427;SDS011;18882;50.952;4.366;2023-04-01T03:23:44;10.60;;;3.22;;
32427;SDS011;18882;50.952;4.366;2023-04-01T03:26:10;10.77;;;3.92;;
32427;SDS011;18882;50.952;4.366;2023-04-01T03:28:36;10.93;;;3.58;;
32427;SDS011;18882;50.952;4.366;2023-04-01T03:31:02;11.60;;;3.58;;
32427;SDS011;18882;50.952;4.366;2023-04-01T03:33:28;13.20;;;3.67;;
32427;SDS011;18882;50.952;4.366;2023-04-01T03:35:53;14.32;;;3.50;;
32427;SDS011;18882;50.952;4.366;2023-04-01T03:38:19;13.88;;;4.20;;
32427;SDS011;18882;50.952;4.366;2023-04-01T03:40:45;12.48;;;3.72;;
32427;SDS011;18882;50.952;4.366;2023-04-01T03:43:11;19.02;;;4.22;;
32427;SDS011;18882;50.952;4.366;2023-04-01T03:45:46;9.02;;;3.78;;
32427;SDS011;18882;50.952;4.366;2023-04-01T03:48:14;14.68;;;4.45;;
32427;SDS011;18882;50.952;4.366;2023-04-01T03:50:40;11.85;;;3.70;;
32427;SDS011;18882;50.952;4.366;2023-04-01T03:53:06;14.23;;;3.97;;
32427;SDS011;18882;50.952;4.366;2023-04-01T03:55:32;16.52;;;5.70;;
32427;SDS011;18882;50.952;4.366;2023-04-01T03:57:58;13.85;;;4.25;;
32427;SDS011;18882;50.952;4.366;2023-04-01T04:00:24;18.20;;;4.78;;
32427;SDS011;18882;50.952;4.366;2023-04-01T04:02:50;12.38;;;4.18;;
32427;SDS011;18882;50.952;4.366;2023-04-01T04:05:15;24.58;;;5.00;;
32427;SDS011;18882;50.952;4.366;2023-04-01T04:07:41;8.90;;;4.35;;
32427;SDS011;18882;50.952;4.366;2023-04-01T04:10:07;14.15;;;4.13;;
32427;SDS011;18882;50.952;4.366;2023-04-01T04:12:33;13.90;;;4.35;;
32427;SDS011;18882;50.952;4.366;2023-04-01T04:14:58;12.07;;;4.15;;
32427;SDS011;18882;50.952;4.366;2023-04-01T04:17:24;10.40;;;4.10;;
32427;SDS011;18882;50.952;4.366;2023-04-01T04:19:50;9.80;;;4.07;;
32427;SDS011;18882;50.952;4.366;2023-04-01T04:22:16;14.95;;;5.38;;
32427;SDS011;18882;50.952;4.366;2023-04-01T04:24:42;11.73;;;3.33;;
32427;SDS011;18882;50.952;4.366;2023-04-01T04:27:07;9.65;;;3.42;;
32427;SDS011;18882;50.952;4.366;2023-04-01T04:29:33;8.60;;;2.90;;
32427;SDS011;18882;50.952;4.366;2023-04-01T04:31:59;7.22;;;3.25;;
32427;SDS011;18882;50.952;4.366;2023-04-01T04:34:25;5.90;;;2.85;;
32427;SDS011;18882;50.952;4.366;2023-04-01T04:36:50;5.28;;;2.63;;
32427;SDS011;18882;50.952;4.366;2023-04-01T04:39:16;5.22;;;2.78;;
32427;SDS011;18882;50.952;4.366;2023-04-01T04:41:42;4.32;;;2.75;;
32427;SDS011;18882;50.952;4.366;2023-04-01T04:44:07;5.80;;;2.42;;
32427;SDS011;18882;50.952;4.366;2023-04-01T04:46:33;4.53;;;2.28;;
32427;SDS011;18882;50.952;4.366;2023-04-01T04:48:59;8.50;;;2.10;;
32427;SDS011;18882;50.952;4.366;2023-04-01T04:51:25;6.72;;;2.15;;
32427;SDS011;18882;50.952;4.366;2023-04-01T04:53:51;2.47;;;2.15;;
32427;SDS011;18882;50.952;4.366;2023-04-01T04:56:17;2.97;;;2.20;;
32427;SDS011;18882;50.952;4.366;2023-04-01T04:58:44;6.88;;;2.25;;
32427;SDS011;18882;50.952;4.366;2023-04-01T05:01:12;2.03;;;1.80;;
32427;SDS011;18882;50.952;4.366;2023-04-01T05:03:40;3.40;;;1.48;;
32427;SDS011;18882;50.952;4.366;2023-04-01T05:06:07;4.15;;;1.75;;
32427;SDS011;18882;50.952;4.366;2023-04-01T05:08:33;2.90;;;1.70;;
32427;SDS011;18882;50.952;4.366;2023-04-01T05:11:00;3.92;;;1.83;;
32427;SDS011;18882;50.952;4.366;2023-04-01T05:13:26;3.90;;;2.10;;
32427;SDS011;18882;50.952;4.366;2023-04-01T05:15:52;2.55;;;2.15;;
32427;SDS011;18882;50.952;4.366;2023-04-01T05:18:18;4.25;;;1.80;;
32427;SDS011;18882;50.952;4.366;2023-04-01T05:20:51;5.70;;;1.90;;
32427;SDS011;18882;50.952;4.366;2023-04-01T05:23:18;4.10;;;2.00;;
32427;SDS011;18882;50.952;4.366;2023-04-01T05:25:48;2.95;;;1.75;;
32427;SDS011;18882;50.952;4.366;2023-04-01T05:28:16;3.55;;;1.90;;
32427;SDS011;18882;50.952;4.366;2023-04-01T05:30:42;1.95;;;1.45;;
32427;SDS011;18882;50.952;4.366;2023-04-01T05:33:09;2.55;;;1.70;;
32427;SDS011;18882;50.952;4.366;2023-04-01T05:35:36;1.98;;;1.33;;
32427;SDS011;18882;50.952;4.366;2023-04-01T05:38:02;2.60;;;1.67;;
32427;SDS011;18882;50.952;4.366;2023-04-01T05:40:28;2.08;;;1.60;;
32427;SDS011;18882;50.952;4.366;2023-04-01T05:42:54;2.28;;;1.67;;
32427;SDS011;18882;50.952;4.366;2023-04-01T05:45:20;4.22;;;2.63;;
32427;SDS011;18882;50.952;4.366;2023-04-01T05:47:46;3.03;;;1.98;;
32427;SDS011;18882;50.952;4.366;2023-04-01T05:50:11;3.50;;;2.00;;
32427;SDS011;18882;50.952;4.366;2023-04-01T05:52:37;4.47;;;2.35;;
32427;SDS011;18882;50.952;4.366;2023-04-01T05:55:04;5.85;;;3.33;;
32427;SDS011;18882;50.952;4.366;2023-04-01T05:57:30;8.27;;;2.92;;
32427;SDS011;18882;50.952;4.366;2023-04-01T05:59:56;7.07;;;2.88;;
32427;SDS011;18882;50.952;4.366;2023-04-01T06:02:21;9.50;;;3.42;;
32427;SDS011;18882;50.952;4.366;2023-04-01T06:04:48;7.53;;;3.78;;
32427;SDS011;18882;50.952;4.366;2023-04-01T06:07:15;7.18;;;3.58;;
32427;SDS011;18882;50.952;4.366;2023-04-01T06:09:42;11.07;;;4.00;;
32427;SDS011;18882;50.952;4.366;2023-04-01T06:20:05;6.22;;;3.63;;
32427;SDS011;18882;50.952;4.366;2023-04-01T06:22:36;11.20;;;3.38;;
32427;SDS011;18882;50.952;4.366;2023-04-01T06:25:33;5.72;;;2.95;;
32427;SDS011;18882;50.952;4.366;2023-04-01T06:37:11;8.00;;;2.60;;
32427;SDS011;18882;50.952;4.366;2023-04-01T06:39:44;5.20;;;2.17;;
32427;SDS011;18882;50.952;4.366;2023-04-01T06:42:34;6.00;;;2.55;;
32427;SDS011;18882;50.952;4.366;2023-04-01T06:45:26;4.97;;;2.30;;
32427;SDS011;18882;50.952;4.366;2023-04-01T06:50:44;6.07;;;2.05;;
32427;SDS011;18882;50.952;4.366;2023-04-01T06:53:25;4.68;;;2.00;;
32427;SDS011;18882;50.952;4.366;2023-04-01T06:56:16;4.97;;;2.25;;
32427;SDS011;18882;50.952;4.366;2023-04-01T06:58:46;3.67;;;1.70;;
32427;SDS011;18882;50.952;4.366;2023-04-01T07:01:18;3.72;;;1.52;;
32427;SDS011;18882;50.952;4.366;2023-04-01T07:03:55;3.15;;;1.05;;
32427;SDS011;18882;50.952;4.366;2023-04-01T07:09:33;1.83;;;1.65;;
32427;SDS011;18882;50.952;4.366;2023-04-01T07:12:03;1.23;;;0.93;;
32427;SDS011;18882;50.952;4.366;2023-04-01T07:14:39;1.88;;;1.48;;
32427;SDS011;18882;50.952;4.366;2023-04-01T07:17:25;3.25;;;1.08;;
32427;SDS011;18882;50.952;4.366;2023-04-01T07:19:57;1.65;;;1.02;;
32427;SDS011;18882;50.952;4.366;2023-04-01T07:22:42;2.13;;;0.82;;
32427;SDS011;18882;50.952;4.366;2023-04-01T07:25:14;1.25;;;0.65;;
32427;SDS011;18882;50.952;4.366;2023-04-01T07:27:43;2.65;;;0.52;;
32427;SDS011;18882;50.952;4.366;2023-04-01T07:30:14;2.05;;;0.70;;
32427;SDS011;18882;50.952;4.366;2023-04-01T07:32:50;2.30;;;0.70;;
32427;SDS011;18882;50.952;4.366;2023-04-01T07:35:25;3.80;;;0.70;;
32427;SDS011;18882;50.952;4.366;2023-04-01T07:43:57;2.58;;;1.08;;
32427;SDS011;18882;50.952;4.366;2023-04-01T07:49:21;3.08;;;0.70;;
32427;SDS011;18882;50.952;4.366;2023-04-01T07:57:06;1.85;;;0.70;;
32427;SDS011;18882;50.952;4.366;2023-04-01T08:00:12;0.93;;;0.40;;
32427;SDS011;18882;50.952;4.366;2023-04-01T08:06:16;1.05;;;0.50;;
32427;SDS011;18882;50.952;4.366;2023-04-01T08:14:12;0.70;;;0.47;;
32427;SDS011;18882;50.952;4.366;2023-04-01T08:16:50;2.28;;;0.60;;
32427;SDS011;18882;50.952;4.366;2023-04-01T08:22:23;0.82;;;0.63;;
32427;SDS011;18882;50.952;4.366;2023-04-01T08:24:58;3.17;;;0.65;;
32427;SDS011;18882;50.952;4.366;2023-04-01T08:27:37;0.45;;;0.30;;
32427;SDS011;18882;50.952;4.366;2023-04-01T08:30:23;0.57;;;0.50;;
32427;SDS011;18882;50.952;4.366;2023-04-01T08:35:34;0.45;;;0.20;;
32427;SDS011;18882;50.952;4.366;2023-04-01T08:38:12;0.40;;;0.40;;
32427;SDS011;18882;50.952;4.366;2023-04-01T08:55:27;0.50;;;0.40;;
32427;SDS011;18882;50.952;4.366;2023-04-01T08:58:00;0.50;;;0.30;;
32427;SDS011;18882;50.952;4.366;2023-04-01T09:00:44;2.17;;;0.57;;
32427;SDS011;18882;50.952;4.366;2023-04-01T09:03:29;2.15;;;0.50;;
32427;SDS011;18882;50.952;4.366;2023-04-01T09:06:11;0.80;;;0.50;;
32427;SDS011;18882;50.952;4.366;2023-04-01T09:08:59;0.85;;;0.40;;
32427;SDS011;18882;50.952;4.366;2023-04-01T09:17:36;1.67;;;0.95;;
32427;SDS011;18882;50.952;4.366;2023-04-01T09:29:11;1.80;;;0.70;;
32427;SDS011;18882;50.952;4.366;2023-04-01T10:24:40;4.07;;;1.58;;
32427;SDS011;18882;50.952;4.366;2023-04-01T10:36:32;0.35;;;0.30;;
32427;SDS011;18882;50.952;4.366;2023-04-01T10:39:37;1.95;;;0.40;;
32427;SDS011;18882;50.952;4.366;2023-04-01T11:24:44;0.32;;;0.22;;
32427;SDS011;18882;50.952;4.366;2023-04-01T11:33:20;0.65;;;0.57;;
32427;SDS011;18882;50.952;4.366;2023-04-01T11:44:21;0.40;;;0.32;;
32427;SDS011;18882;50.952;4.366;2023-04-01T11:49:57;1.38;;;0.70;;
32427;SDS011;18882;50.952;4.366;2023-04-01T11:55:47;1.17;;;0.80;;
32427;SDS011;18882;50.952;4.366;2023-04-01T12:20:50;0.30;;;0.30;;
32427;SDS011;18882;50.952;4.366;2023-04-01T12:29:29;0.55;;;0.43;;
32427;SDS011;18882;50.952;4.366;2023-04-01T12:41:08;0.85;;;0.60;;
32427;SDS011;18882;50.952;4.366;2023-04-01T13:08:55;1.05;;;0.50;;
32427;SDS011;18882;50.952;4.366;2023-04-01T13:23:56;0.35;;;0.35;;
32427;SDS011;18882;50.952;4.366;2023-04-01T13:26:45;2.58;;;1.13;;
32427;SDS011;18882;50.952;4.366;2023-04-01T13:29:21;2.22;;;1.20;;
32427;SDS011;18882;50.952;4.366;2023-04-01T13:37:15;1.00;;;0.30;;
32427;SDS011;18882;50.952;4.366;2023-04-01T13:45:21;1.52;;;0.95;;
32427;SDS011;18882;50.952;4.366;2023-04-01T13:56:19;9.18;;;4.88;;
32427;SDS011;18882;50.952;4.366;2023-04-01T14:02:19;4.50;;;1.65;;
32427;SDS011;18882;50.952;4.366;2023-04-01T14:24:01;2.58;;;2.03;;
32427;SDS011;18882;50.952;4.366;2023-04-01T14:32:07;2.85;;;1.20;;
32427;SDS011;18882;50.952;4.366;2023-04-01T14:42:59;1.40;;;1.02;;
32427;SDS011;18882;50.952;4.366;2023-04-01T14:46:55;3.15;;;1.33;;
32427;SDS011;18882;50.952;4.366;2023-04-01T14:51:56;0.95;;;0.60;;
32427;SDS011;18882;50.952;4.366;2023-04-01T14:57:28;1.35;;;0.88;;
32427;SDS011;18882;50.952;4.366;2023-04-01T15:10:44;2.28;;;1.33;;
32427;SDS011;18882;50.952;4.366;2023-04-01T15:16:27;2.45;;;1.52;;
32427;SDS011;18882;50.952;4.366;2023-04-01T15:19:18;1.55;;;1.45;;
32427;SDS011;18882;50.952;4.366;2023-04-01T15:22:18;1.65;;;1.20;;
32427;SDS011;18882;50.952;4.366;2023-04-01T15:38:48;1.80;;;1.00;;
32427;SDS011;18882;50.952;4.366;2023-04-01T15:43:52;1.13;;;0.85;;
32427;SDS011;18882;50.952;4.366;2023-04-01T15:46:51;1.20;;;0.90;;
32427;SDS011;18882;50.952;4.366;2023-04-01T15:57:10;2.95;;;1.10;;
32427;SDS011;18882;50.952;4.366;2023-04-01T16:13:53;5.22;;;1.65;;
32427;SDS011;18882;50.952;4.366;2023-04-01T16:16:48;2.95;;;1.23;;
32427;SDS011;18882;50.952;4.366;2023-04-01T16:19:41;3.28;;;1.73;;
32427;SDS011;18882;50.952;4.366;2023-04-01T16:22:14;3.75;;;2.08;;
32427;SDS011;18882;50.952;4.366;2023-04-01T16:27:31;1.42;;;1.08;;
32427;SDS011;18882;50.952;4.366;2023-04-01T16:35:58;2.20;;;2.00;;
32427;SDS011;18882;50.952;4.366;2023-04-01T16:41:16;3.63;;;1.98;;
32427;SDS011;18882;50.952;4.366;2023-04-01T16:43:48;5.13;;;2.05;;
32427;SDS011;18882;50.952;4.366;2023-04-01T16:46:26;2.22;;;1.90;;
32427;SDS011;18882;50.952;4.366;2023-04-01T16:59:47;2.15;;;1.42;;
32427;SDS011;18882;50.952;4.366;2023-04-01T17:02:14;1.60;;;1.50;;
32427;SDS011;18882;50.952;4.366;2023-04-01T17:04:43;2.25;;;1.75;;
32427;SDS011;18882;50.952;4.366;2023-04-01T17:10:38;2.33;;;1.70;;
32427;SDS011;18882;50.952;4.366;2023-04-01T17:29:25;2.00;;;1.70;;
32427;SDS011;18882;50.952;4.366;2023-04-01T17:32:10;1.50;;;1.40;;
32427;SDS011;18882;50.952;4.366;2023-04-01T17:37:55;5.13;;;2.45;;
32427;SDS011;18882;50.952;4.366;2023-04-01T17:43:12;3.55;;;1.85;;
32427;SDS011;18882;50.952;4.366;2023-04-01T17:48:35;3.25;;;2.10;;
32427;SDS011;18882;50.952;4.366;2023-04-01T17:51:15;3.60;;;2.00;;
32427;SDS011;18882;50.952;4.366;2023-04-01T18:00:03;3.92;;;2.10;;
32427;SDS011;18882;50.952;4.366;2023-04-01T18:10:55;7.30;;;3.67;;
32427;SDS011;18882;50.952;4.366;2023-04-01T18:30:11;10.60;;;4.50;;
32427;SDS011;18882;50.952;4.366;2023-04-01T18:32:52;9.23;;;4.43;;
32427;SDS011;18882;50.952;4.366;2023-04-01T18:38:36;5.72;;;3.58;;
32427;SDS011;18882;50.952;4.366;2023-04-01T18:44:59;10.88;;;5.15;;
32427;SDS011;18882;50.952;4.366;2023-04-01T18:47:27;11.60;;;5.00;;
32427;SDS011;18882;50.952;4.366;2023-04-01T19:04:43;15.02;;;6.38;;
32427;SDS011;18882;50.952;4.366;2023-04-01T19:07:39;11.93;;;5.90;;
32427;SDS011;18882;50.952;4.366;2023-04-01T19:13:30;13.82;;;6.60;;
32427;SDS011;18882;50.952;4.366;2023-04-01T19:19:34;15.27;;;6.70;;
32427;SDS011;18882;50.952;4.366;2023-04-01T19:22:50;12.20;;;6.65;;
32427;SDS011;18882;50.952;4.366;2023-04-01T19:25:24;19.17;;;6.90;;
32427;SDS011;18882;50.952;4.366;2023-04-01T19:28:02;21.52;;;7.07;;
32427;SDS011;18882;50.952;4.366;2023-04-01T19:30:38;18.80;;;6.75;;
32427;SDS011;18882;50.952;4.366;2023-04-01T19:33:36;14.23;;;6.25;;
32427;SDS011;18882;50.952;4.366;2023-04-01T19:36:28;20.75;;;6.78;;
32427;SDS011;18882;50.952;4.366;2023-04-01T19:39:28;16.73;;;6.22;;
32427;SDS011;18882;50.952;4.366;2023-04-01T19:50:59;13.40;;;5.72;;
32427;SDS011;18882;50.952;4.366;2023-04-01T19:56:36;17.25;;;6.15;;
32427;SDS011;18882;50.952;4.366;2023-04-01T20:02:24;16.08;;;5.00;;
32427;SDS011;18882;50.952;4.366;2023-04-01T20:04:57;17.17;;;5.55;;
32427;SDS011;18882;50.952;4.366;2023-04-01T20:07:43;12.93;;;5.90;;
32427;SDS011;18882;50.952;4.366;2023-04-01T20:13:25;25.20;;;7.05;;
32427;SDS011;18882;50.952;4.366;2023-04-01T20:16:08;15.63;;;5.88;;
32427;SDS011;18882;50.952;4.366;2023-04-01T20:18:54;15.15;;;6.93;;
32427;SDS011;18882;50.952;4.366;2023-04-01T20:24:07;18.63;;;6.75;;
32427;SDS011;18882;50.952;4.366;2023-04-01T20:26:40;13.02;;;6.53;;
32427;SDS011;18882;50.952;4.366;2023-04-01T20:40:41;16.25;;;7.18;;
32427;SDS011;18882;50.952;4.366;2023-04-01T20:46:20;16.73;;;7.40;;
32427;SDS011;18882;50.952;4.366;2023-04-01T20:51:26;20.73;;;8.38;;
32427;SDS011;18882;50.952;4.366;2023-04-01T20:54:22;23.25;;;8.32;;
32427;SDS011;18882;50.952;4.366;2023-04-01T20:57:21;21.85;;;8.93;;
32427;SDS011;18882;50.952;4.366;2023-04-01T21:05:58;20.77;;;8.55;;
32427;SDS011;18882;50.952;4.366;2023-04-01T21:09:26;24.63;;;9.05;;
32427;SDS011;18882;50.952;4.366;2023-04-01T21:14:52;23.25;;;10.15;;
32427;SDS011;18882;50.952;4.366;2023-04-01T21:17:42;30.20;;;10.75;;
32427;SDS011;18882;50.952;4.366;2023-04-01T21:23:21;22.25;;;10.65;;
32427;SDS011;18882;50.952;4.366;2023-04-01T21:28:41;28.48;;;11.40;;
32427;SDS011;18882;50.952;4.366;2023-04-01T21:37:18;28.88;;;11.73;;
32427;SDS011;18882;50.952;4.366;2023-04-01T21:53:52;30.77;;;11.43;;
32427;SDS011;18882;50.952;4.366;2023-04-01T22:05:36;17.30;;;8.32;;
32427;SDS011;18882;50.952;4.366;2023-04-01T22:14:08;13.52;;;7.38;;
32427;SDS011;18882;50.952;4.366;2023-04-01T22:16:57;14.60;;;7.90;;
32427;SDS011;18882;50.952;4.366;2023-04-01T22:32:44;18.17;;;9.82;;
32427;SDS011;18882;50.952;4.366;2023-04-01T22:40:39;26.38;;;11.68;;
32427;SDS011;18882;50.952;4.366;2023-04-01T22:43:13;24.63;;;11.70;;
32427;SDS011;18882;50.952;4.366;2023-04-01T22:45:51;17.52;;;9.38;;
32427;SDS011;18882;50.952;4.366;2023-04-01T22:48:42;17.90;;;9.55;;
32427;SDS011;18882;50.952;4.366;2023-04-01T22:51:41;22.92;;;10.18;;
32427;SDS011;18882;50.952;4.366;2023-04-01T22:57:01;18.00;;;8.52;;
32427;SDS011;18882;50.952;4.366;2023-04-01T22:59:51;19.45;;;9.57;;
32427;SDS011;18882;50.952;4.366;2023-04-01T23:02:28;18.27;;;9.13;;
32427;SDS011;18882;50.952;4.366;2023-04-01T23:04:59;23.48;;;10.45;;
32427;SDS011;18882;50.952;4.366;2023-04-01T23:10:26;19.75;;;9.15;;
32427;SDS011;18882;50.952;4.366;2023-04-01T23:12:58;14.73;;;7.43;;
32427;SDS011;18882;50.952;4.366;2023-04-01T23:15:27;21.27;;;9.98;;
32427;SDS011;18882;50.952;4.366;2023-04-01T23:17:58;22.20;;;10.48;;
32427;SDS011;18882;50.952;4.366;2023-04-01T23:26:15;21.48;;;10.60;;
32427;SDS011;18882;50.952;4.366;2023-04-01T23:28:51;22.55;;;10.25;;
32427;SDS011;18882;50.952;4.366;2023-04-01T23:33:58;23.02;;;10.63;;
32427;SDS011;18882;50.952;4.366;2023-04-01T23:36:37;25.80;;;12.32;;
32427;SDS011;18882;50.952;4.366;2023-04-01T23:39:23;33.10;;;13.20;;
32427;SDS011;18882;50.952;4.366;2023-04-01T23:42:01;33.15;;;13.52;;
32427;SDS011;18882;50.952;4.366;2023-04-01T23:44:32;29.17;;;13.00;;
32427;SDS011;18882;50.952;4.366;2023-04-01T23:47:00;26.25;;;11.23;;
32427;SDS011;18882;50.952;4.366;2023-04-01T23:49:29;24.73;;;11.38;;
32427;SDS011;18882;50.952;4.366;2023-04-01T23:52:00;31.92;;;12.63;;
32427;SDS011;18882;50.952;4.366;2023-04-01T23:57:12;27.98;;;12.10;;
